Time;durP1;ratioP1;P1;durP2;ratioP2;P2;SDS_P1;SDS_P2;PMS_P1;PMS_P2;Temp;Humidity;BMP_temperature;BMP_pressure;BME280_temperature;BME280_humidity;BME280_pressure;Samples;Min_cycle;Max_cycle;Signal;HPM_P1;HPM_P2
2021/05/23 00:00:29;;;;;;;;;;;14.50;99.90;;;;;;2095496;28;1906;-68
2021/05/23 00:01:49;;;;;;;;;;;14.50;99.90;;;;;;2094339;28;1275;-68
2021/05/23 00:03:09;;;;;;;;;;;14.50;99.90;;;;;;2098715;28;1472;-68
2021/05/23 00:04:28;;;;;;;;;;;14.50;99.90;;;;;;2094658;28;1335;-68
2021/05/23 00:05:47;;;;;;;;;;;14.50;99.90;;;;;;2098225;28;1358;-69
2021/05/23 00:07:07;;;;;;;;;;;14.50;99.90;;;;;;2099582;28;991;-68
2021/05/23 00:08:27;;;;;;;;;;;14.50;99.90;;;;;;2097949;28;1011;-68
2021/05/23 00:09:46;;;;;;;;;;;14.50;99.90;;;;;;2099398;28;1377;-68
2021/05/23 00:11:07;;;;;;;;;;;14.50;99.90;;;;;;2098380;28;739;-67
2021/05/23 00:12:26;;;;;;;;;;;14.50;99.90;;;;;;2095478;28;998;-70
2021/05/23 00:13:46;;;;;;;;;;;14.50;99.90;;;;;;2087304;28;1611;-68
2021/05/23 00:15:06;;;;;;;;;;;14.50;99.90;;;;;;2090679;28;1337;-68
2021/05/23 00:16:26;;;;;;;;;;;14.50;99.90;;;;;;2090316;28;754;-68
2021/05/23 00:17:45;;;;;;;;;;;14.50;99.90;;;;;;2090994;28;1979;-68
2021/05/23 00:19:04;;;;;;;;;;;14.60;99.90;;;;;;2090923;28;922;-68
2021/05/23 00:20:24;;;;;;;;;;;14.50;99.90;;;;;;2081788;28;1902;-68
2021/05/23 00:21:43;;;;;;;;;;;14.50;99.90;;;;;;2082054;28;734;-67
2021/05/23 00:23:04;;;;;;;;;;;14.50;99.90;;;;;;2083533;28;706;-68
2021/05/23 00:24:24;;;;;;;;;;;14.50;99.90;;;;;;2086551;28;716;-68
2021/05/23 00:25:43;;;;;;;;;;;14.50;99.90;;;;;;2087556;28;2031;-68
2021/05/23 00:27:02;;;;;;;;;;;14.50;99.90;;;;;;2097155;28;1553;-67
2021/05/23 00:28:21;;;;;;;;;;;14.50;99.90;;;;;;2089974;28;745;-68
2021/05/23 00:29:40;;;;;;;;;;;14.50;99.90;;;;;;2094825;28;1320;-68
2021/05/23 00:31:00;;;;;;;;;;;14.50;99.90;;;;;;2098908;28;727;-67
2021/05/23 00:32:19;;;;;;;;;;;14.50;99.90;;;;;;2098194;28;1090;-69
2021/05/23 00:33:38;;;;;;;;;;;14.60;99.90;;;;;;2095268;28;721;-68
2021/05/23 00:34:58;;;;;;;;;;;14.50;99.90;;;;;;2097990;28;754;-68
2021/05/23 00:36:17;;;;;;;;;;;14.50;99.90;;;;;;2103589;28;713;-68
2021/05/23 00:37:36;;;;;;;;;;;14.50;99.90;;;;;;2083465;28;1480;-68
2021/05/23 00:38:56;;;;;;;;;;;14.50;99.90;;;;;;2080662;28;988;-67
2021/05/23 00:40:15;;;;;;;;;;;14.50;99.90;;;;;;2100031;28;1914;-68
2021/05/23 00:41:34;;;;;;;;;;;14.50;99.90;;;;;;2107189;28;856;-69
2021/05/23 00:42:53;;;;;;;;;;;14.50;99.90;;;;;;2106940;28;777;-68
2021/05/23 00:44:12;;;;;;;;;;;14.50;99.90;;;;;;2106246;28;733;-67
2021/05/23 00:45:32;;;;;;;;;;;14.50;99.90;;;;;;2100224;28;1391;-68
2021/05/23 00:46:51;;;;;;;;;;;14.50;99.90;;;;;;2098503;28;722;-68
2021/05/23 00:48:11;;;;;;;;;;;14.50;99.90;;;;;;2095104;28;724;-68
2021/05/23 00:49:30;;;;;;;;;;;14.50;99.90;;;;;;2098761;28;733;-68
2021/05/23 00:50:49;;;;;;;;;;;14.50;99.90;;;;;;2099050;28;700;-68
2021/05/23 00:52:08;;;;;;;;;;;14.50;99.90;;;;;;2090049;28;726;-67
2021/05/23 00:53:28;;;;;;;;;;;14.50;99.90;;;;;;2095293;28;736;-67
2021/05/23 00:54:47;;;;;;;;;;;14.50;99.90;;;;;;2097783;28;727;-68
2021/05/23 00:56:06;;;;;;;;;;;14.50;99.90;;;;;;2091711;28;1709;-67
2021/05/23 00:57:26;;;;;;;;;;;14.50;99.90;;;;;;2089675;28;732;-68
2021/05/23 00:58:46;;;;;;;;;;;14.50;99.90;;;;;;2090431;28;714;-67
2021/05/23 01:00:06;;;;;;;;;;;14.50;99.90;;;;;;2097896;28;1698;-68
2021/05/23 01:01:43;;;;;;;;;;;14.50;99.90;;;;;;2090209;28;724;-68
2021/05/23 01:03:02;;;;;;;;;;;14.50;99.90;;;;;;2098189;28;759;-67
2021/05/23 01:04:22;;;;;;;;;;;14.50;99.90;;;;;;2095038;28;758;-69
2021/05/23 01:05:41;;;;;;;;;;;14.50;99.90;;;;;;2086682;28;781;-68
2021/05/23 01:07:00;;;;;;;;;;;14.50;99.90;;;;;;2098526;28;872;-67
2021/05/23 01:08:20;;;;;;;;;;;14.50;99.90;;;;;;2100413;28;1008;-68
2021/05/23 01:09:39;;;;;;;;;;;14.50;99.90;;;;;;2098399;28;677;-68
2021/05/23 01:11:16;;;;;;;;;;;14.50;99.90;;;;;;2093939;28;1543;-68
2021/05/23 01:12:38;;;;;;;;;;;14.50;99.90;;;;;;2098701;28;731;-68
2021/05/23 01:13:58;;;;;;;;;;;14.50;99.90;;;;;;2097291;28;1989;-67
2021/05/23 01:15:17;;;;;;;;;;;14.50;99.90;;;;;;2095098;28;741;-68
2021/05/23 01:16:36;;;;;;;;;;;14.50;99.90;;;;;;2089802;28;974;-69
2021/05/23 01:17:57;;;;;;;;;;;14.50;99.90;;;;;;2094863;28;731;-67
2021/05/23 01:19:17;;;;;;;;;;;14.50;99.90;;;;;;2098272;28;725;-69
2021/05/23 01:20:47;;;;;;;;;;;14.50;99.90;;;;;;2098275;28;1978;-69
2021/05/23 01:22:11;;;;;;;;;;;14.50;99.90;;;;;;2098377;28;709;-68
2021/05/23 01:23:31;;;;;;;;;;;14.40;99.90;;;;;;2093843;28;749;-69
2021/05/23 01:25:09;;;;;;;;;;;14.50;99.90;;;;;;2090798;28;941;-69
2021/05/23 01:26:32;;;;;;;;;;;14.40;99.90;;;;;;2096722;28;964;-68
2021/05/23 01:27:52;;;;;;;;;;;14.50;99.90;;;;;;2089307;28;1881;-68
2021/05/23 01:29:11;;;;;;;;;;;14.40;99.90;;;;;;2095437;28;719;-68
2021/05/23 01:30:31;;;;;;;;;;;14.40;99.90;;;;;;2098662;28;1431;-70
2021/05/23 01:31:50;;;;;;;;;;;14.40;99.90;;;;;;2089863;28;786;-69
2021/05/23 01:33:10;;;;;;;;;;;14.40;99.90;;;;;;2086547;28;787;-68
2021/05/23 01:34:29;;;;;;;;;;;14.40;99.90;;;;;;2091170;28;764;-67
2021/05/23 01:35:54;;;;;;;;;;;14.40;99.90;;;;;;2098263;28;1677;-68
2021/05/23 01:37:13;;;;;;;;;;;14.40;99.90;;;;;;2102675;28;1005;-67
2021/05/23 01:38:32;;;;;;;;;;;14.40;99.90;;;;;;2088710;28;938;-67
2021/05/23 01:39:51;;;;;;;;;;;14.40;99.90;;;;;;2091015;28;1401;-67
2021/05/23 01:41:11;;;;;;;;;;;14.40;99.90;;;;;;2094468;28;717;-69
2021/05/23 01:42:30;;;;;;;;;;;14.40;99.90;;;;;;2094032;28;721;-67
2021/05/23 01:43:49;;;;;;;;;;;14.40;99.90;;;;;;2088721;28;780;-67
2021/05/23 01:45:08;;;;;;;;;;;14.40;99.90;;;;;;2095030;28;764;-68
2021/05/23 01:46:27;;;;;;;;;;;14.40;99.90;;;;;;2097198;28;747;-67
2021/05/23 01:47:47;;;;;;;;;;;14.40;99.90;;;;;;2094765;28;1544;-68
2021/05/23 01:49:08;;;;;;;;;;;14.40;99.90;;;;;;2086412;28;730;-68
2021/05/23 01:50:27;;;;;;;;;;;14.40;99.90;;;;;;2086538;28;1417;-68
2021/05/23 01:51:46;;;;;;;;;;;14.40;99.90;;;;;;2078469;28;717;-67
2021/05/23 01:53:06;;;;;;;;;;;14.40;99.90;;;;;;2086761;28;717;-69
2021/05/23 01:54:25;;;;;;;;;;;14.40;99.90;;;;;;2090235;28;1599;-69
2021/05/23 01:55:44;;;;;;;;;;;14.40;99.90;;;;;;2097748;28;732;-68
2021/05/23 01:57:04;;;;;;;;;;;14.40;99.90;;;;;;2097854;28;709;-67
2021/05/23 01:58:23;;;;;;;;;;;14.40;99.90;;;;;;2090264;28;1750;-67
2021/05/23 01:59:42;;;;;;;;;;;14.40;99.90;;;;;;2084746;28;1679;-67
2021/05/23 02:01:01;;;;;;;;;;;14.40;99.90;;;;;;2089742;28;1918;-67
2021/05/23 02:02:23;;;;;;;;;;;14.40;99.90;;;;;;2090329;28;701;-67
2021/05/23 02:03:43;;;;;;;;;;;14.40;99.90;;;;;;2090087;28;732;-67
2021/05/23 02:05:02;;;;;;;;;;;14.40;99.90;;;;;;2089443;28;718;-69
2021/05/23 02:06:21;;;;;;;;;;;14.40;99.90;;;;;;2089640;28;723;-67
2021/05/23 02:07:40;;;;;;;;;;;14.40;99.90;;;;;;2090629;28;877;-67
2021/05/23 02:09:00;;;;;;;;;;;14.40;99.90;;;;;;2091247;28;1129;-64
2021/05/23 02:10:19;;;;;;;;;;;14.40;99.90;;;;;;2094758;28;1434;-64
2021/05/23 02:11:38;;;;;;;;;;;14.40;99.90;;;;;;2097361;28;757;-66
2021/05/23 02:13:01;;;;;;;;;;;14.40;99.90;;;;;;2094227;28;698;-64
2021/05/23 02:14:20;;;;;;;;;;;14.40;99.90;;;;;;2094108;28;734;-65
2021/05/23 02:15:40;;;;;;;;;;;14.40;99.90;;;;;;2094536;28;750;-63
2021/05/23 02:16:59;;;;;;;;;;;14.40;99.90;;;;;;2080733;28;1734;-64
2021/05/23 02:18:18;;;;;;;;;;;14.40;99.90;;;;;;2085761;28;967;-63
2021/05/23 02:19:37;;;;;;;;;;;14.40;99.90;;;;;;2094462;28;1037;-64
2021/05/23 02:20:56;;;;;;;;;;;14.40;99.90;;;;;;2092603;28;1910;-64
2021/05/23 02:22:16;;;;;;;;;;;14.40;99.90;;;;;;2089832;28;768;-66
2021/05/23 02:23:36;;;;;;;;;;;14.40;99.90;;;;;;2089224;28;743;-64
2021/05/23 02:24:55;;;;;;;;;;;14.40;99.90;;;;;;2089290;28;1548;-64
2021/05/23 02:26:14;;;;;;;;;;;14.40;99.90;;;;;;2097241;28;780;-64
2021/05/23 02:27:40;;;;;;;;;;;14.40;99.90;;;;;;2090108;28;689;-64
2021/05/23 02:28:59;;;;;;;;;;;14.40;99.90;;;;;;2089936;28;763;-64
2021/05/23 02:30:20;;;;;;;;;;;14.40;99.90;;;;;;2089321;28;1466;-64
2021/05/23 02:31:39;;;;;;;;;;;14.40;99.90;;;;;;2070902;28;1241;-64
2021/05/23 02:32:58;;;;;;;;;;;14.40;99.90;;;;;;2088888;28;750;-64
2021/05/23 02:34:18;;;;;;;;;;;14.40;99.90;;;;;;2093354;28;709;-64
2021/05/23 02:35:38;;;;;;;;;;;14.40;99.90;;;;;;2089283;28;740;-64
2021/05/23 02:36:57;;;;;;;;;;;14.40;99.90;;;;;;2101761;28;1653;-64
2021/05/23 02:38:16;;;;;;;;;;;14.30;99.90;;;;;;2106758;28;1036;-64
2021/05/23 02:39:36;;;;;;;;;;;14.30;99.90;;;;;;2097666;28;1374;-64
2021/05/23 02:40:56;;;;;;;;;;;14.40;99.90;;;;;;2089458;28;1973;-64
2021/05/23 02:42:15;;;;;;;;;;;14.40;99.90;;;;;;2089189;28;738;-64
2021/05/23 02:43:34;;;;;;;;;;;14.40;99.90;;;;;;2089330;28;724;-64
2021/05/23 02:44:53;;;;;;;;;;;14.30;99.90;;;;;;2072137;28;788;-64
2021/05/23 02:46:12;;;;;;;;;;;14.40;99.90;;;;;;2079534;28;730;-64
2021/05/23 02:47:32;;;;;;;;;;;14.40;99.90;;;;;;2093420;28;1605;-65
2021/05/23 02:48:51;;;;;;;;;;;14.40;99.90;;;;;;2086037;28;729;-64
2021/05/23 02:50:12;;;;;;;;;;;14.40;99.90;;;;;;2099466;28;1473;-65
2021/05/23 02:51:31;;;;;;;;;;;14.30;99.90;;;;;;2097559;28;761;-64
2021/05/23 02:52:50;;;;;;;;;;;14.40;99.90;;;;;;2094102;28;778;-64
2021/05/23 02:54:09;;;;;;;;;;;14.30;99.90;;;;;;2093479;28;711;-64
2021/05/23 02:55:28;;;;;;;;;;;14.40;99.90;;;;;;2097675;28;743;-64
2021/05/23 02:56:47;;;;;;;;;;;14.30;99.90;;;;;;2095515;28;1724;-64
2021/05/23 02:58:11;;;;;;;;;;;14.30;99.90;;;;;;2090405;28;990;-63
2021/05/23 02:59:30;;;;;;;;;;;14.40;99.90;;;;;;2095622;28;1275;-65
2021/05/23 03:00:50;;;;;;;;;;;14.30;99.90;;;;;;2094725;28;1965;-66
2021/05/23 03:02:09;;;;;;;;;;;14.30;99.90;;;;;;2092799;28;1113;-67
2021/05/23 03:03:28;;;;;;;;;;;14.30;99.90;;;;;;2091851;28;1062;-67
2021/05/23 03:04:48;;;;;;;;;;;14.30;99.90;;;;;;2092093;28;1687;-67
2021/05/23 03:06:07;;;;;;;;;;;14.30;99.90;;;;;;2091448;28;1235;-68
2021/05/23 03:07:26;;;;;;;;;;;14.30;99.90;;;;;;2082778;28;1526;-67
2021/05/23 03:08:45;;;;;;;;;;;14.30;99.90;;;;;;2079800;28;1289;-68
2021/05/23 03:10:05;;;;;;;;;;;14.30;99.90;;;;;;2086375;28;1507;-68
2021/05/23 03:11:25;;;;;;;;;;;14.30;99.90;;;;;;2092823;28;1238;-68
2021/05/23 03:12:44;;;;;;;;;;;14.30;99.90;;;;;;2091567;28;1390;-68
2021/05/23 03:14:03;;;;;;;;;;;14.30;99.90;;;;;;2094233;28;1619;-68
2021/05/23 03:15:23;;;;;;;;;;;14.30;99.90;;;;;;2091521;28;1435;-67
2021/05/23 03:16:42;;;;;;;;;;;14.30;99.90;;;;;;2090749;28;1201;-64
2021/05/23 03:18:03;;;;;;;;;;;14.30;99.90;;;;;;2081553;28;1312;-64
2021/05/23 03:19:22;;;;;;;;;;;14.30;99.90;;;;;;2090083;28;1222;-64
2021/05/23 03:20:41;;;;;;;;;;;14.30;99.90;;;;;;2094521;28;1913;-64
2021/05/23 03:22:01;;;;;;;;;;;14.30;99.90;;;;;;2091491;28;1479;-64
2021/05/23 03:23:20;;;;;;;;;;;14.30;99.90;;;;;;2095769;28;1199;-64
2021/05/23 03:24:39;;;;;;;;;;;14.30;99.90;;;;;;2093230;28;1429;-64
2021/05/23 03:25:59;;;;;;;;;;;14.40;99.90;;;;;;2089753;28;1367;-64
2021/05/23 03:27:18;;;;;;;;;;;14.30;99.90;;;;;;2087675;28;938;-64
2021/05/23 03:28:37;;;;;;;;;;;14.30;99.90;;;;;;2090397;28;1107;-64
2021/05/23 03:29:56;;;;;;;;;;;14.30;99.90;;;;;;2092771;28;1439;-64
2021/05/23 03:31:16;;;;;;;;;;;14.30;99.90;;;;;;2090601;28;1192;-64
2021/05/23 03:32:35;;;;;;;;;;;14.30;99.90;;;;;;2088756;28;1190;-64
2021/05/23 03:33:54;;;;;;;;;;;14.30;99.90;;;;;;2091999;28;1479;-63
2021/05/23 03:35:14;;;;;;;;;;;14.30;99.90;;;;;;2093502;28;1048;-64
2021/05/23 03:36:33;;;;;;;;;;;14.30;99.90;;;;;;2093324;28;1011;-64
2021/05/23 03:37:52;;;;;;;;;;;14.30;99.90;;;;;;2091672;28;1350;-64
2021/05/23 03:39:11;;;;;;;;;;;14.30;99.90;;;;;;2088727;28;1241;-63
2021/05/23 03:40:31;;;;;;;;;;;14.30;99.90;;;;;;2090758;28;1898;-64
2021/05/23 03:41:50;;;;;;;;;;;14.30;99.90;;;;;;2090226;28;1175;-64
2021/05/23 03:43:10;;;;;;;;;;;14.30;99.90;;;;;;2090187;28;1309;-64
2021/05/23 03:44:29;;;;;;;;;;;14.30;99.90;;;;;;2092624;28;1460;-64
2021/05/23 03:45:48;;;;;;;;;;;14.30;99.90;;;;;;2097807;28;1146;-64
2021/05/23 03:47:07;;;;;;;;;;;14.30;99.90;;;;;;2094573;28;1161;-65
2021/05/23 03:48:27;;;;;;;;;;;14.30;99.90;;;;;;2097571;28;1200;-64
2021/05/23 03:49:46;;;;;;;;;;;14.30;99.90;;;;;;2094627;28;1452;-64
2021/05/23 03:51:06;;;;;;;;;;;14.30;99.90;;;;;;2091035;28;1133;-64
2021/05/23 03:52:25;;;;;;;;;;;14.30;99.90;;;;;;2091973;28;1178;-64
2021/05/23 03:53:44;;;;;;;;;;;14.30;99.90;;;;;;2091007;28;1230;-64
2021/05/23 03:55:04;;;;;;;;;;;14.30;99.90;;;;;;2083312;28;1190;-64
2021/05/23 03:56:23;;;;;;;;;;;14.30;99.90;;;;;;2085093;28;1290;-64
2021/05/23 03:57:42;;;;;;;;;;;14.30;99.90;;;;;;2088180;28;1331;-65
2021/05/23 03:59:01;;;;;;;;;;;14.30;99.90;;;;;;2094963;28;1315;-64
2021/05/23 04:00:21;;;;;;;;;;;14.30;99.90;;;;;;2094180;28;1971;-63
2021/05/23 04:01:40;;;;;;;;;;;14.30;99.90;;;;;;2085273;28;1261;-65
2021/05/23 04:02:59;;;;;;;;;;;14.30;99.90;;;;;;2088632;28;1583;-64
2021/05/23 04:04:20;;;;;;;;;;;14.30;99.90;;;;;;2087967;28;1750;-64
2021/05/23 04:05:40;;;;;;;;;;;14.30;99.90;;;;;;2091690;28;1206;-64
2021/05/23 04:06:59;;;;;;;;;;;14.30;99.90;;;;;;2091199;28;1301;-64
2021/05/23 04:08:19;;;;;;;;;;;14.30;99.90;;;;;;2091819;28;1291;-64
2021/05/23 04:09:38;;;;;;;;;;;14.30;99.90;;;;;;2089979;28;1231;-64
2021/05/23 04:11:36;;;;;;;;;;;14.30;99.90;;;;;;2089041;28;1199;-65
2021/05/23 04:12:45;;;;;;;;;;;14.30;99.90;;;;;;2088759;28;1480;-64
2021/05/23 04:14:04;;;;;;;;;;;14.30;99.90;;;;;;2089117;28;1240;-64
2021/05/23 04:15:24;;;;;;;;;;;14.30;99.90;;;;;;2086076;28;1132;-65
2021/05/23 04:16:43;;;;;;;;;;;14.40;99.90;;;;;;2085661;28;1384;-64
2021/05/23 04:18:02;;;;;;;;;;;14.40;99.90;;;;;;2090848;28;1369;-64
2021/05/23 04:19:22;;;;;;;;;;;14.40;99.90;;;;;;2089874;28;952;-65
2021/05/23 04:20:41;;;;;;;;;;;14.40;99.90;;;;;;2085789;28;1914;-64
2021/05/23 04:22:01;;;;;;;;;;;14.30;99.90;;;;;;2090077;28;1368;-64
2021/05/23 04:23:22;;;;;;;;;;;14.40;99.90;;;;;;2081494;28;1135;-65
2021/05/23 04:24:41;;;;;;;;;;;14.30;99.90;;;;;;2083801;28;1334;-65
2021/05/23 04:26:00;;;;;;;;;;;14.30;99.90;;;;;;2088128;28;1209;-65
2021/05/23 04:27:20;;;;;;;;;;;14.30;99.90;;;;;;2081709;28;1127;-65
2021/05/23 04:28:39;;;;;;;;;;;14.30;99.90;;;;;;2084800;28;1410;-65
2021/05/23 04:29:58;;;;;;;;;;;14.30;99.90;;;;;;2092143;28;1478;-64
2021/05/23 04:31:17;;;;;;;;;;;14.30;99.90;;;;;;2100043;28;1160;-65
2021/05/23 04:32:37;;;;;;;;;;;14.30;99.90;;;;;;2088770;28;1305;-63
2021/05/23 04:33:56;;;;;;;;;;;14.30;99.90;;;;;;2082211;28;1698;-64
2021/05/23 04:35:15;;;;;;;;;;;14.30;99.90;;;;;;2091418;28;1430;-64
2021/05/23 04:36:34;;;;;;;;;;;14.30;99.90;;;;;;2095555;28;1301;-64
2021/05/23 04:37:54;;;;;;;;;;;14.30;99.90;;;;;;2092551;28;1247;-65
2021/05/23 04:39:14;;;;;;;;;;;14.30;99.90;;;;;;2092887;28;1488;-65
2021/05/23 04:40:33;;;;;;;;;;;14.30;99.90;;;;;;2092193;28;1902;-65
2021/05/23 04:41:53;;;;;;;;;;;14.30;99.90;;;;;;2088328;28;1279;-63
2021/05/23 04:43:13;;;;;;;;;;;14.30;99.90;;;;;;2094838;28;1393;-64
2021/05/23 04:44:32;;;;;;;;;;;14.20;99.90;;;;;;2085573;28;1374;-64
2021/05/23 04:45:52;;;;;;;;;;;14.30;99.90;;;;;;2092193;28;867;-64
2021/05/23 04:47:11;;;;;;;;;;;14.30;99.90;;;;;;2092703;28;1336;-64
2021/05/23 04:48:30;;;;;;;;;;;14.30;99.90;;;;;;2089453;28;1304;-64
2021/05/23 04:49:49;;;;;;;;;;;14.30;99.90;;;;;;2091150;28;1359;-64
2021/05/23 04:51:08;;;;;;;;;;;14.30;99.90;;;;;;2091874;28;1023;-68
2021/05/23 04:52:27;;;;;;;;;;;14.30;99.90;;;;;;2095242;28;1474;-65
2021/05/23 04:53:47;;;;;;;;;;;14.30;99.90;;;;;;2094769;28;1338;-64
2021/05/23 04:55:07;;;;;;;;;;;14.30;99.90;;;;;;2095265;28;1084;-65
2021/05/23 04:56:27;;;;;;;;;;;14.30;99.90;;;;;;2083802;28;1179;-64
2021/05/23 04:57:46;;;;;;;;;;;14.30;99.90;;;;;;2090140;28;1359;-63
2021/05/23 04:59:05;;;;;;;;;;;14.30;99.90;;;;;;2090698;28;1297;-65
2021/05/23 05:00:24;;;;;;;;;;;14.30;99.90;;;;;;2089262;28;2010;-63
2021/05/23 05:01:44;;;;;;;;;;;14.30;99.90;;;;;;2092740;28;1139;-67
2021/05/23 05:03:03;;;;;;;;;;;14.40;99.90;;;;;;2091523;28;1337;-67
2021/05/23 05:04:22;;;;;;;;;;;14.30;99.90;;;;;;2094615;28;1513;-68
2021/05/23 05:05:41;;;;;;;;;;;14.40;99.90;;;;;;2091140;28;1093;-68
2021/05/23 05:07:01;;;;;;;;;;;14.40;99.90;;;;;;2093216;28;1402;-68
2021/05/23 05:08:20;;;;;;;;;;;14.30;99.90;;;;;;2090657;28;1170;-68
2021/05/23 05:09:39;;;;;;;;;;;14.30;99.90;;;;;;2091279;28;1163;-69
2021/05/23 05:10:59;;;;;;;;;;;14.30;99.90;;;;;;2092105;28;1142;-68
2021/05/23 05:12:20;;;;;;;;;;;14.30;99.90;;;;;;2091171;28;1413;-68
2021/05/23 05:13:39;;;;;;;;;;;14.30;99.90;;;;;;2084081;28;1271;-68
2021/05/23 05:14:58;;;;;;;;;;;14.30;99.90;;;;;;2090805;28;1216;-68
2021/05/23 05:16:18;;;;;;;;;;;14.30;99.90;;;;;;2091648;28;1155;-64
2021/05/23 05:17:37;;;;;;;;;;;14.30;99.90;;;;;;2092832;28;1414;-65
2021/05/23 05:18:56;;;;;;;;;;;14.30;99.90;;;;;;2093032;28;1288;-64
2021/05/23 05:20:15;;;;;;;;;;;14.30;99.90;;;;;;2084043;28;1500;-65
2021/05/23 05:21:35;;;;;;;;;;;14.30;99.90;;;;;;2082523;28;1116;-65
2021/05/23 05:22:54;;;;;;;;;;;14.30;99.90;;;;;;2092506;28;1678;-64
2021/05/23 05:24:14;;;;;;;;;;;14.30;99.90;;;;;;2090516;28;1442;-64
2021/05/23 05:25:33;;;;;;;;;;;14.30;99.90;;;;;;2084116;28;1257;-65
2021/05/23 05:26:52;;;;;;;;;;;14.30;99.90;;;;;;2087633;28;1475;-65
2021/05/23 05:28:12;;;;;;;;;;;14.30;99.90;;;;;;2092686;28;1006;-65
2021/05/23 05:29:31;;;;;;;;;;;14.30;99.90;;;;;;2092200;28;1191;-65
2021/05/23 05:30:50;;;;;;;;;;;14.30;99.90;;;;;;2089264;28;1264;-68
2021/05/23 05:32:10;;;;;;;;;;;14.30;99.90;;;;;;2089237;28;1700;-67
2021/05/23 05:33:29;;;;;;;;;;;14.30;99.90;;;;;;2089229;28;1310;-67
2021/05/23 05:34:48;;;;;;;;;;;14.20;99.90;;;;;;2084900;28;1120;-67
2021/05/23 05:36:07;;;;;;;;;;;14.30;99.90;;;;;;2091047;28;1286;-68
2021/05/23 05:37:26;;;;;;;;;;;14.30;99.90;;;;;;2084193;28;934;-66
2021/05/23 05:38:48;;;;;;;;;;;14.40;99.90;;;;;;2086020;28;1050;-66
2021/05/23 05:40:08;;;;;;;;;;;14.50;99.90;;;;;;2089889;28;1438;-66
2021/05/23 05:41:27;;;;;;;;;;;14.50;99.90;;;;;;2089540;28;1104;-67
2021/05/23 05:42:47;;;;;;;;;;;14.50;99.90;;;;;;2089896;28;1598;-67
2021/05/23 05:44:06;;;;;;;;;;;14.50;99.90;;;;;;2084310;28;997;-65
2021/05/23 05:45:25;;;;;;;;;;;14.50;99.90;;;;;;2093260;28;1433;-68
2021/05/23 05:46:44;;;;;;;;;;;14.50;99.90;;;;;;2089420;28;961;-68
2021/05/23 05:48:04;;;;;;;;;;;14.40;99.90;;;;;;2093610;28;1270;-66
2021/05/23 05:49:23;;;;;;;;;;;14.40;99.90;;;;;;2089531;28;1204;-67
2021/05/23 05:50:42;;;;;;;;;;;14.40;99.90;;;;;;2092077;28;1414;-67
2021/05/23 05:52:02;;;;;;;;;;;14.40;99.90;;;;;;2094365;28;1227;-66
2021/05/23 05:53:21;;;;;;;;;;;14.40;99.90;;;;;;2086952;28;1137;-67
2021/05/23 05:54:40;;;;;;;;;;;14.40;99.90;;;;;;2093273;28;1158;-66
2021/05/23 05:56:00;;;;;;;;;;;14.40;99.90;;;;;;2095528;28;1144;-67
2021/05/23 05:57:19;;;;;;;;;;;14.40;99.90;;;;;;2087427;28;1070;-66
2021/05/23 05:58:39;;;;;;;;;;;14.30;99.90;;;;;;2091859;28;1164;-67
2021/05/23 05:59:58;;;;;;;;;;;14.40;99.90;;;;;;2094304;28;1412;-68
2021/05/23 06:01:17;;;;;;;;;;;14.30;99.90;;;;;;2096241;28;1967;-66
2021/05/23 06:02:36;;;;;;;;;;;14.30;99.90;;;;;;2090126;28;1638;-67
2021/05/23 06:03:56;;;;;;;;;;;14.30;99.90;;;;;;2093947;28;1245;-66
2021/05/23 06:05:15;;;;;;;;;;;14.30;99.90;;;;;;2097375;28;1263;-66
2021/05/23 06:06:34;;;;;;;;;;;14.30;99.90;;;;;;2093556;28;1265;-66
2021/05/23 06:07:54;;;;;;;;;;;14.30;99.90;;;;;;2095989;28;831;-66
2021/05/23 06:09:13;;;;;;;;;;;14.30;99.90;;;;;;2096975;28;1378;-65
2021/05/23 06:10:32;;;;;;;;;;;14.30;99.90;;;;;;2095796;28;1502;-67
2021/05/23 06:11:51;;;;;;;;;;;14.30;99.90;;;;;;2092109;28;1093;-68
2021/05/23 06:13:10;;;;;;;;;;;14.30;99.90;;;;;;2097849;28;1643;-67
2021/05/23 06:14:30;;;;;;;;;;;14.30;99.90;;;;;;2097398;28;1078;-67
2021/05/23 06:15:49;;;;;;;;;;;14.30;99.90;;;;;;2098619;28;1175;-67
2021/05/23 06:17:08;;;;;;;;;;;14.30;99.90;;;;;;2088655;28;1096;-66
2021/05/23 06:18:27;;;;;;;;;;;14.30;99.90;;;;;;2078420;28;1393;-68
2021/05/23 06:19:47;;;;;;;;;;;14.30;99.90;;;;;;2085631;28;1231;-68
2021/05/23 06:21:06;;;;;;;;;;;14.30;99.90;;;;;;2092831;28;1992;-67
2021/05/23 06:22:26;;;;;;;;;;;14.30;99.90;;;;;;2084708;28;1668;-66
2021/05/23 06:23:45;;;;;;;;;;;14.30;99.90;;;;;;2089539;28;1250;-68
2021/05/23 06:25:05;;;;;;;;;;;14.30;99.90;;;;;;2092109;28;1232;-68
2021/05/23 06:26:24;;;;;;;;;;;14.30;99.90;;;;;;2093245;28;1224;-66
2021/05/23 06:27:43;;;;;;;;;;;14.30;99.90;;;;;;2092695;28;1080;-67
2021/05/23 06:29:03;;;;;;;;;;;14.20;99.90;;;;;;2092402;28;1310;-67
2021/05/23 06:30:22;;;;;;;;;;;14.30;99.90;;;;;;2088445;28;1451;-67
2021/05/23 06:31:41;;;;;;;;;;;14.30;99.90;;;;;;2089686;28;1285;-67
2021/05/23 06:33:01;;;;;;;;;;;14.30;99.90;;;;;;2089283;28;1977;-67
2021/05/23 06:34:20;;;;;;;;;;;14.20;99.90;;;;;;2093468;28;1123;-66
2021/05/23 06:35:39;;;;;;;;;;;14.30;99.90;;;;;;2090393;28;1246;-65
2021/05/23 06:36:59;;;;;;;;;;;14.30;99.90;;;;;;2093226;28;1459;-66
2021/05/23 06:38:18;;;;;;;;;;;14.30;99.90;;;;;;2089814;28;1537;-69
2021/05/23 06:39:38;;;;;;;;;;;14.30;99.90;;;;;;2088508;28;1433;-68
2021/05/23 06:40:58;;;;;;;;;;;14.30;99.90;;;;;;2089311;28;1910;-66
2021/05/23 06:42:18;;;;;;;;;;;14.30;99.90;;;;;;2081407;28;1385;-65
2021/05/23 06:43:37;;;;;;;;;;;14.30;99.90;;;;;;2089425;28;1320;-66
2021/05/23 06:44:57;;;;;;;;;;;14.30;99.90;;;;;;2093467;28;1266;-67
2021/05/23 06:46:16;;;;;;;;;;;14.30;99.90;;;;;;2093582;28;1239;-66
2021/05/23 06:47:36;;;;;;;;;;;14.30;99.90;;;;;;2092287;28;862;-66
2021/05/23 06:48:55;;;;;;;;;;;14.30;99.90;;;;;;2088652;28;1131;-65
2021/05/23 06:50:14;;;;;;;;;;;14.30;99.90;;;;;;2088557;28;1848;-67
2021/05/23 06:51:33;;;;;;;;;;;14.30;99.90;;;;;;2083866;28;1349;-68
2021/05/23 06:52:53;;;;;;;;;;;14.30;99.90;;;;;;2090601;28;1527;-68
2021/05/23 06:54:12;;;;;;;;;;;14.30;99.90;;;;;;2091461;28;973;-66
2021/05/23 06:55:31;;;;;;;;;;;14.30;99.90;;;;;;2093184;28;1291;-66
2021/05/23 06:56:51;;;;;;;;;;;14.30;99.90;;;;;;2086249;28;1219;-67
2021/05/23 06:58:10;;;;;;;;;;;14.20;99.90;;;;;;2090951;28;1326;-66
2021/05/23 06:59:29;;;;;;;;;;;14.30;99.90;;;;;;2093508;28;1270;-66
2021/05/23 07:00:48;;;;;;;;;;;14.20;99.90;;;;;;2092460;28;1902;-67
2021/05/23 07:02:07;;;;;;;;;;;14.20;99.90;;;;;;2088977;28;1241;-69
2021/05/23 07:03:26;;;;;;;;;;;14.30;99.90;;;;;;2087840;28;1337;-68
2021/05/23 07:04:46;;;;;;;;;;;14.20;99.90;;;;;;2089276;28;1238;-68
2021/05/23 07:06:06;;;;;;;;;;;14.20;99.90;;;;;;2090741;28;1484;-68
2021/05/23 07:07:25;;;;;;;;;;;14.20;99.90;;;;;;2091399;28;1255;-71
2021/05/23 07:08:44;;;;;;;;;;;14.20;99.90;;;;;;2088837;28;1357;-67
2021/05/23 07:10:04;;;;;;;;;;;14.20;99.90;;;;;;2083560;28;1494;-69
2021/05/23 07:11:23;;;;;;;;;;;14.20;99.90;;;;;;2088370;28;1222;-71
2021/05/23 07:12:42;;;;;;;;;;;14.20;99.90;;;;;;2090304;28;1376;-67
2021/05/23 07:14:02;;;;;;;;;;;14.20;99.90;;;;;;2090184;28;1210;-70
2021/05/23 07:15:21;;;;;;;;;;;14.20;99.90;;;;;;2093655;28;1424;-69
2021/05/23 07:16:40;;;;;;;;;;;14.20;99.90;;;;;;2089454;28;1435;-67
2021/05/23 07:17:59;;;;;;;;;;;14.20;99.90;;;;;;2093246;28;1265;-66
2021/05/23 07:19:18;;;;;;;;;;;14.20;99.90;;;;;;2090244;28;1212;-67
2021/05/23 07:20:38;;;;;;;;;;;14.20;99.90;;;;;;2091617;28;1989;-66
2021/05/23 07:21:58;;;;;;;;;;;14.20;99.90;;;;;;2090057;28;1236;-66
2021/05/23 07:23:17;;;;;;;;;;;14.20;99.90;;;;;;2083979;28;1256;-68
2021/05/23 07:24:36;;;;;;;;;;;14.30;99.90;;;;;;2085891;28;1301;-66
2021/05/23 07:25:56;;;;;;;;;;;14.30;99.90;;;;;;2083470;28;1288;-67
2021/05/23 07:27:15;;;;;;;;;;;14.30;99.90;;;;;;2079164;28;1714;-66
2021/05/23 07:28:34;;;;;;;;;;;14.30;99.90;;;;;;2082101;28;1166;-69
2021/05/23 07:29:53;;;;;;;;;;;14.30;99.90;;;;;;2078642;28;1424;-66
2021/05/23 07:31:13;;;;;;;;;;;14.30;99.90;;;;;;2075772;28;1087;-66
2021/05/23 07:32:32;;;;;;;;;;;14.30;99.90;;;;;;2088621;28;1490;-66
2021/05/23 07:33:51;;;;;;;;;;;14.30;99.90;;;;;;2089249;28;1192;-66
2021/05/23 07:35:11;;;;;;;;;;;14.30;99.90;;;;;;2089357;28;1577;-66
2021/05/23 07:36:30;;;;;;;;;;;14.30;99.90;;;;;;2077438;28;1306;-66
2021/05/23 07:37:49;;;;;;;;;;;14.30;99.90;;;;;;2086639;28;1171;-67
2021/05/23 07:39:08;;;;;;;;;;;14.30;99.90;;;;;;2091081;28;1031;-67
2021/05/23 07:40:28;;;;;;;;;;;14.30;99.90;;;;;;2091889;28;1887;-67
2021/05/23 07:41:47;;;;;;;;;;;14.30;99.90;;;;;;2091019;28;1073;-65
2021/05/23 07:43:07;;;;;;;;;;;14.30;99.90;;;;;;2087984;28;1176;-67
2021/05/23 07:44:26;;;;;;;;;;;14.30;99.90;;;;;;2090002;28;1282;-66
2021/05/23 07:45:47;;;;;;;;;;;14.30;99.90;;;;;;2088592;28;1205;-66
2021/05/23 07:47:07;;;;;;;;;;;14.30;99.90;;;;;;2094219;28;1167;-67
2021/05/23 07:48:26;;;;;;;;;;;14.30;99.90;;;;;;2092989;28;1395;-67
2021/05/23 07:49:45;;;;;;;;;;;14.30;99.90;;;;;;2091060;28;1343;-66
2021/05/23 07:51:04;;;;;;;;;;;14.30;99.90;;;;;;2093985;28;1469;-67
2021/05/23 07:52:23;;;;;;;;;;;14.30;99.90;;;;;;2093077;28;1326;-66